Fish Trap — WDD2213 — position and weather

sailwx.info

Track history (hours):
 
Tides and Currents Weather Stations Pressure Air Temp Water Temp Dewpoint Dewpoint Depression Visibility Wind Speed Wind Dir Waves Ship Positions

Fish Trap

Owner: Capt. Bob's Sportfishing, Inc, Haven Beach, NJ. More information available from US FCC via Universal Licensing System and Coast Guard Vessel Documentation Center.

Last reported at 2018-Jun-09 16:51 UTC. Time now 2018-Jun-21 18:11 UTC.
Position N 39°48' W 074°05'.
Warning: this ship's position is 12 days out of date.

Length 13 m.

Type: Fishing. MMSI: 367112380.

Date/timePositionNaut miles runAvg speedWind from/ knotsBaromVisibWave heightAir tempDewpointWater temp
2018-Jun-09 16:51N 39°48' W 074°05'3 6.3
2018-Jun-09 16:23N 39°51' W 074°05'2 0.3
2018-Jun-09 10:02N 39°49' W 074°04'0 3.2
2018-Jun-09 09:58N 39°49' W 074°04'0 0.4
2018-Jun-09 09:23N 39°48' W 074°04'3 7.3
2018-Jun-09 09:00N 39°46' W 074°05'1 2.4
2018-Jun-09 08:25N 39°45' W 074°07'0 0.0
2018-Jun-08 16:04N 39°45' W 074°07'0 0.0
2018-Jun-07 23:29N 39°45' W 074°07'0 0.0
2018-Jun-07 22:44N 39°45' W 074°07'1 5.6
2018-Jun-07 22:30N 39°45' W 074°05'5 0.3
2018-Jun-07 04:42N 39°42' W 073°60'317.0
2018-Jun-07 04:30N 39°44' W 074°03'3 6.2
2018-Jun-07 04:00N 39°46' W 074°07'1 0.8
2018-Jun-07 03:21N 39°45' W 074°07'0 0.0
2018-Jun-07 03:00N 39°45' W 074°07'0 0.0
2018-Jun-07 02:30N 39°45' W 074°07'0 0.0
2018-Jun-07 02:00N 39°45' W 074°07'0 0.0
2018-Jun-07 01:30N 39°45' W 074°07'0 0.0
2018-Jun-07 00:54N 39°45' W 074°07'0 0.0
2018-Jun-07 00:21N 39°45' W 074°07'0 0.0
2018-Jun-07 00:00N 39°45' W 074°07'0 0.0
2018-Jun-06 23:30N 39°45' W 074°07'0 0.0
2018-Jun-06 23:00N 39°45' W 074°07'0 0.0
2018-Jun-06 22:30N 39°45' W 074°07'0 0.0
2018-Jun-06 21:54N 39°45' W 074°07'0 0.0
2018-Jun-06 21:12N 39°45' W 074°07'0 0.0
2018-Jun-06 21:00N 39°45' W 074°07'0 0.0
2018-Jun-06 20:30N 39°45' W 074°07'0 0.0
2018-Jun-06 20:00N 39°45' W 074°07'0 0.0
2018-Jun-06 19:30N 39°45' W 074°07'0 0.0
2018-Jun-06 19:00N 39°45' W 074°07'0 0.0
2018-Jun-06 18:30N 39°45' W 074°07'0 0.0
2018-Jun-06 18:00N 39°45' W 074°07'0 0.0
2018-Jun-06 17:30N 39°45' W 074°07'0 0.0
2018-Jun-06 16:54N 39°45' W 074°07'0 0.0
2018-Jun-06 16:30N 39°45' W 074°07'0 0.0
2018-Jun-06 16:00N 39°45' W 074°07'0 0.0
2018-Jun-06 15:24N 39°45' W 074°07'  
Track history (hours):
 
Tides and Currents Weather Stations Pressure Air Temp Water Temp Dewpoint Dewpoint Depression Visibility Wind Speed Wind Dir Waves Ship Positions

Fish Trap

Owner: Capt. Bob's Sportfishing, Inc, Haven Beach, NJ. More information available from US FCC via Universal Licensing System and Coast Guard Vessel Documentation Center.

Last reported at 2018-Jun-09 16:51 UTC. Time now 2018-Jun-21 18:11 UTC.
Position N 39°48' W 074°05'.
Warning: this ship's position is 12 days out of date.

Length 13 m.

Type: Fishing. MMSI: 367112380.

Date/timePositionNaut miles runAvg speedWind from/ knotsBaromVisibWave heightAir tempDewpointWater temp
2018-Jun-09 16:51N 39°48' W 074°05'3 6.3
2018-Jun-09 16:23N 39°51' W 074°05'2 0.3
2018-Jun-09 10:02N 39°49' W 074°04'0 3.2
2018-Jun-09 09:58N 39°49' W 074°04'0 0.4
2018-Jun-09 09:23N 39°48' W 074°04'3 7.3
2018-Jun-09 09:00N 39°46' W 074°05'1 2.4
2018-Jun-09 08:25N 39°45' W 074°07'0 0.0
2018-Jun-08 16:04N 39°45' W 074°07'0 0.0
2018-Jun-07 23:29N 39°45' W 074°07'0 0.0
2018-Jun-07 22:44N 39°45' W 074°07'1 5.6
2018-Jun-07 22:30N 39°45' W 074°05'5 0.3
2018-Jun-07 04:42N 39°42' W 073°60'317.0
2018-Jun-07 04:30N 39°44' W 074°03'3 6.2
2018-Jun-07 04:00N 39°46' W 074°07'1 0.8
2018-Jun-07 03:21N 39°45' W 074°07'0 0.0
2018-Jun-07 03:00N 39°45' W 074°07'0 0.0
2018-Jun-07 02:30N 39°45' W 074°07'0 0.0
2018-Jun-07 02:00N 39°45' W 074°07'0 0.0
2018-Jun-07 01:30N 39°45' W 074°07'0 0.0
2018-Jun-07 00:54N 39°45' W 074°07'0 0.0
2018-Jun-07 00:21N 39°45' W 074°07'0 0.0
2018-Jun-07 00:00N 39°45' W 074°07'0 0.0
2018-Jun-06 23:30N 39°45' W 074°07'0 0.0
2018-Jun-06 23:00N 39°45' W 074°07'0 0.0
2018-Jun-06 22:30N 39°45' W 074°07'0 0.0
2018-Jun-06 21:54N 39°45' W 074°07'0 0.0
2018-Jun-06 21:12N 39°45' W 074°07'0 0.0
2018-Jun-06 21:00N 39°45' W 074°07'0 0.0
2018-Jun-06 20:30N 39°45' W 074°07'0 0.0
2018-Jun-06 20:00N 39°45' W 074°07'0 0.0
2018-Jun-06 19:30N 39°45' W 074°07'0 0.0
2018-Jun-06 19:00N 39°45' W 074°07'0 0.0
2018-Jun-06 18:30N 39°45' W 074°07'0 0.0
2018-Jun-06 18:00N 39°45' W 074°07'0 0.0
2018-Jun-06 17:30N 39°45' W 074°07'0 0.0
2018-Jun-06 16:54N 39°45' W 074°07'0 0.0
2018-Jun-06 16:30N 39°45' W 074°07'0 0.0
2018-Jun-06 16:00N 39°45' W 074°07'0 0.0
2018-Jun-06 15:24N 39°45' W 074°07'  

Dump ship's entire track history